sensor_id;sensor_type;location;lat;lon;timestamp;pressure;altitude;pressure_sealevel;temperature;humidity
69058;BME280;56128;37.534;-122.308;2023-06-22T00:02:18;101393.34;;;17.14;99.63
69058;BME280;56128;37.534;-122.308;2023-06-22T00:04:45;101393.94;;;17.08;99.28
69058;BME280;56128;37.534;-122.308;2023-06-22T00:07:11;101393.78;;;17.10;99.45
69058;BME280;56128;37.534;-122.308;2023-06-22T00:09:37;101391.06;;;17.00;99.83
69058;BME280;56128;37.534;-122.308;2023-06-22T00:12:04;101386.66;;;16.89;99.45
69058;BME280;56128;37.534;-122.308;2023-06-22T00:14:31;101384.22;;;16.86;99.99
69058;BME280;56128;37.534;-122.308;2023-06-22T00:16:57;101383.38;;;16.76;100.00
69058;BME280;56128;37.534;-122.308;2023-06-22T00:19:24;101381.41;;;16.78;100.00
69058;BME280;56128;37.534;-122.308;2023-06-22T00:21:51;101389.22;;;16.71;100.00
69058;BME280;56128;37.534;-122.308;2023-06-22T00:24:24;101383.50;;;16.54;100.00
69058;BME280;56128;37.534;-122.308;2023-06-22T00:26:50;101371.88;;;16.54;100.00
69058;BME280;56128;37.534;-122.308;2023-06-22T00:29:17;101375.41;;;16.54;100.00
69058;BME280;56128;37.534;-122.308;2023-06-22T00:31:47;101374.81;;;16.41;100.00
69058;BME280;56128;37.534;-122.308;2023-06-22T00:34:13;101358.91;;;16.28;100.00
69058;BME280;56128;37.534;-122.308;2023-06-22T00:36:39;101380.50;;;16.28;100.00
69058;BME280;56128;37.534;-122.308;2023-06-22T00:39:06;101364.56;;;16.15;100.00
69058;BME280;56128;37.534;-122.308;2023-06-22T00:41:33;101363.41;;;16.08;100.00
69058;BME280;56128;37.534;-122.308;2023-06-22T00:43:59;101362.56;;;16.08;100.00
69058;BME280;56128;37.534;-122.308;2023-06-22T00:46:26;101365.69;;;16.13;100.00
69058;BME280;56128;37.534;-122.308;2023-06-22T00:48:52;101363.44;;;16.18;100.00
69058;BME280;56128;37.534;-122.308;2023-06-22T00:51:23;101354.91;;;16.13;100.00
69058;BME280;56128;37.534;-122.308;2023-06-22T00:53:50;101358.72;;;16.10;100.00
69058;BME280;56128;37.534;-122.308;2023-06-22T00:56:18;101350.19;;;16.05;100.00
69058;BME280;56128;37.534;-122.308;2023-06-22T00:58:46;101346.34;;;15.98;100.00
69058;BME280;56128;37.534;-122.308;2023-06-22T01:01:13;101347.03;;;15.90;100.00
69058;BME280;56128;37.534;-122.308;2023-06-22T01:03:40;101345.00;;;15.82;100.00
69058;BME280;56128;37.534;-122.308;2023-06-22T01:06:10;101347.38;;;15.75;100.00
69058;BME280;56128;37.534;-122.308;2023-06-22T01:08:49;101345.22;;;15.69;100.00
69058;BME280;56128;37.534;-122.308;2023-06-22T01:11:25;101343.06;;;15.63;100.00
69058;BME280;56128;37.534;-122.308;2023-06-22T01:16:24;101351.97;;;15.54;100.00
69058;BME280;56128;37.534;-122.308;2023-06-22T01:18:55;101350.25;;;15.53;100.00
69058;BME280;56128;37.534;-122.308;2023-06-22T01:21:28;101342.81;;;15.35;100.00
69058;BME280;56128;37.534;-122.308;2023-06-22T01:27:08;101337.22;;;15.27;100.00
69058;BME280;56128;37.534;-122.308;2023-06-22T01:29:37;101343.88;;;15.23;100.00
69058;BME280;56128;37.534;-122.308;2023-06-22T01:32:05;101338.47;;;15.23;100.00
69058;BME280;56128;37.534;-122.308;2023-06-22T01:34:33;101345.00;;;15.20;100.00
69058;BME280;56128;37.534;-122.308;2023-06-22T01:37:02;101337.97;;;15.08;100.00
69058;BME280;56128;37.534;-122.308;2023-06-22T01:39:29;101337.19;;;14.96;100.00
69058;BME280;56128;37.534;-122.308;2023-06-22T01:41:57;101341.84;;;14.94;100.00
69058;BME280;56128;37.534;-122.308;2023-06-22T01:44:25;101340.47;;;14.79;100.00
69058;BME280;56128;37.534;-122.308;2023-06-22T01:46:52;101344.66;;;14.71;100.00
69058;BME280;56128;37.534;-122.308;2023-06-22T01:49:21;101336.97;;;14.67;100.00
69058;BME280;56128;37.534;-122.308;2023-06-22T01:51:47;101339.50;;;14.47;100.00
69058;BME280;56128;37.534;-122.308;2023-06-22T01:54:15;101338.56;;;14.37;100.00
69058;BME280;56128;37.534;-122.308;2023-06-22T01:56:41;101339.53;;;14.36;100.00
69058;BME280;56128;37.534;-122.308;2023-06-22T01:59:28;101346.25;;;14.30;100.00
69058;BME280;56128;37.534;-122.308;2023-06-22T02:02:06;101346.53;;;14.27;100.00
69058;BME280;56128;37.534;-122.308;2023-06-22T02:04:59;101338.56;;;14.25;100.00
69058;BME280;56128;37.534;-122.308;2023-06-22T02:07:32;101338.81;;;14.22;100.00
69058;BME280;56128;37.534;-122.308;2023-06-22T02:10:00;101341.41;;;14.12;100.00
69058;BME280;56128;37.534;-122.308;2023-06-22T02:12:28;101346.81;;;14.01;100.00
69058;BME280;56128;37.534;-122.308;2023-06-22T02:14:55;101341.34;;;13.91;100.00
69058;BME280;56128;37.534;-122.308;2023-06-22T02:17:24;101344.16;;;13.90;100.00
69058;BME280;56128;37.534;-122.308;2023-06-22T02:19:51;101343.94;;;13.82;100.00
69058;BME280;56128;37.534;-122.308;2023-06-22T02:22:18;101343.44;;;13.76;100.00
69058;BME280;56128;37.534;-122.308;2023-06-22T02:24:45;101336.00;;;13.57;100.00
69058;BME280;56128;37.534;-122.308;2023-06-22T02:27:13;101335.63;;;13.51;100.00
69058;BME280;56128;37.534;-122.308;2023-06-22T02:29:39;101344.41;;;13.41;100.00
69058;BME280;56128;37.534;-122.308;2023-06-22T02:32:05;101331.22;;;13.38;100.00
69058;BME280;56128;37.534;-122.308;2023-06-22T02:34:32;101337.66;;;13.36;100.00
69058;BME280;56128;37.534;-122.308;2023-06-22T02:37:03;101322.28;;;13.26;100.00
69058;BME280;56128;37.534;-122.308;2023-06-22T02:39:32;101329.72;;;13.23;100.00
69058;BME280;56128;37.534;-122.308;2023-06-22T02:42:01;101330.09;;;13.18;100.00
69058;BME280;56128;37.534;-122.308;2023-06-22T02:44:27;101324.44;;;13.10;100.00
69058;BME280;56128;37.534;-122.308;2023-06-22T02:46:54;101333.50;;;13.09;100.00
69058;BME280;56128;37.534;-122.308;2023-06-22T02:49:20;101339.44;;;13.01;100.00
69058;BME280;56128;37.534;-122.308;2023-06-22T02:51:47;101328.81;;;12.88;100.00
69058;BME280;56128;37.534;-122.308;2023-06-22T02:54:14;101342.81;;;12.80;100.00
69058;BME280;56128;37.534;-122.308;2023-06-22T02:56:40;101339.63;;;12.75;100.00
69058;BME280;56128;37.534;-122.308;2023-06-22T02:59:10;101347.41;;;12.67;100.00
69058;BME280;56128;37.534;-122.308;2023-06-22T03:01:37;101351.75;;;12.57;100.00
69058;BME280;56128;37.534;-122.308;2023-06-22T03:04:06;101351.13;;;12.53;100.00
69058;BME280;56128;37.534;-122.308;2023-06-22T03:06:33;101352.47;;;12.47;100.00
69058;BME280;56128;37.534;-122.308;2023-06-22T03:09:02;101359.38;;;12.39;100.00
69058;BME280;56128;37.534;-122.308;2023-06-22T03:11:33;101355.56;;;12.30;100.00
69058;BME280;56128;37.534;-122.308;2023-06-22T03:14:01;101347.09;;;12.23;100.00
69058;BME280;56128;37.534;-122.308;2023-06-22T03:16:29;101356.66;;;12.14;100.00
69058;BME280;56128;37.534;-122.308;2023-06-22T03:18:55;101344.47;;;12.10;100.00
69058;BME280;56128;37.534;-122.308;2023-06-22T03:21:27;101348.34;;;12.06;100.00
69058;BME280;56128;37.534;-122.308;2023-06-22T03:23:53;101348.91;;;11.98;100.00
69058;BME280;56128;37.534;-122.308;2023-06-22T03:26:20;101343.09;;;11.92;100.00
69058;BME280;56128;37.534;-122.308;2023-06-22T03:28:47;101345.25;;;11.86;100.00
69058;BME280;56128;37.534;-122.308;2023-06-22T03:31:13;101345.69;;;11.80;100.00
69058;BME280;56128;37.534;-122.308;2023-06-22T03:33:39;101349.69;;;11.75;100.00
69058;BME280;56128;37.534;-122.308;2023-06-22T03:36:05;101356.31;;;11.69;100.00
69058;BME280;56128;37.534;-122.308;2023-06-22T03:38:32;101350.31;;;11.65;100.00
69058;BME280;56128;37.534;-122.308;2023-06-22T03:41:00;101354.97;;;11.63;100.00
69058;BME280;56128;37.534;-122.308;2023-06-22T03:43:26;101349.81;;;11.60;100.00
69058;BME280;56128;37.534;-122.308;2023-06-22T03:45:52;101344.88;;;11.54;100.00
69058;BME280;56128;37.534;-122.308;2023-06-22T03:48:19;101345.66;;;11.43;100.00
69058;BME280;56128;37.534;-122.308;2023-06-22T03:50:45;101353.06;;;11.40;100.00
69058;BME280;56128;37.534;-122.308;2023-06-22T03:53:11;101348.13;;;11.33;100.00
69058;BME280;56128;37.534;-122.308;2023-06-22T03:55:47;101348.25;;;11.32;100.00
69058;BME280;56128;37.534;-122.308;2023-06-22T03:58:14;101363.66;;;11.28;100.00
69058;BME280;56128;37.534;-122.308;2023-06-22T04:00:40;101357.44;;;11.28;100.00
69058;BME280;56128;37.534;-122.308;2023-06-22T04:03:07;101357.66;;;11.25;100.00
69058;BME280;56128;37.534;-122.308;2023-06-22T04:05:33;101364.75;;;11.26;100.00
69058;BME280;56128;37.534;-122.308;2023-06-22T04:07:59;101365.03;;;11.21;100.00
69058;BME280;56128;37.534;-122.308;2023-06-22T04:10:25;101355.72;;;11.14;100.00
69058;BME280;56128;37.534;-122.308;2023-06-22T04:12:51;101361.38;;;11.09;100.00
69058;BME280;56128;37.534;-122.308;2023-06-22T04:15:18;101361.38;;;11.09;100.00
69058;BME280;56128;37.534;-122.308;2023-06-22T04:17:44;101361.50;;;11.08;100.00
69058;BME280;56128;37.534;-122.308;2023-06-22T04:20:10;101362.56;;;11.05;100.00
69058;BME280;56128;37.534;-122.308;2023-06-22T04:22:36;101365.47;;;11.02;100.00
69058;BME280;56128;37.534;-122.308;2023-06-22T04:25:03;101371.56;;;11.04;100.00
69058;BME280;56128;37.534;-122.308;2023-06-22T04:27:29;101361.91;;;11.01;100.00
69058;BME280;56128;37.534;-122.308;2023-06-22T04:29:55;101371.34;;;10.94;100.00
69058;BME280;56128;37.534;-122.308;2023-06-22T04:32:21;101381.50;;;10.89;100.00
69058;BME280;56128;37.534;-122.308;2023-06-22T04:34:47;101380.09;;;10.83;100.00
69058;BME280;56128;37.534;-122.308;2023-06-22T04:37:14;101373.78;;;10.84;100.00
69058;BME280;56128;37.534;-122.308;2023-06-22T04:39:42;101379.88;;;10.86;100.00
69058;BME280;56128;37.534;-122.308;2023-06-22T04:42:08;101381.16;;;10.81;100.00
69058;BME280;56128;37.534;-122.308;2023-06-22T04:44:35;101382.66;;;10.85;100.00
69058;BME280;56128;37.534;-122.308;2023-06-22T04:47:01;101383.72;;;10.82;100.00
69058;BME280;56128;37.534;-122.308;2023-06-22T04:49:30;101379.66;;;10.77;100.00
69058;BME280;56128;37.534;-122.308;2023-06-22T04:52:04;101384.38;;;10.73;100.00
69058;BME280;56128;37.534;-122.308;2023-06-22T04:54:31;101371.28;;;10.68;100.00
69058;BME280;56128;37.534;-122.308;2023-06-22T04:57:07;101374.06;;;10.67;100.00
69058;BME280;56128;37.534;-122.308;2023-06-22T04:59:37;101375.22;;;10.63;100.00
69058;BME280;56128;37.534;-122.308;2023-06-22T05:02:05;101376.50;;;10.57;100.00
69058;BME280;56128;37.534;-122.308;2023-06-22T05:04:32;101378.41;;;10.55;100.00
69058;BME280;56128;37.534;-122.308;2023-06-22T05:07:02;101382.13;;;10.52;100.00
69058;BME280;56128;37.534;-122.308;2023-06-22T05:09:29;101383.03;;;10.53;100.00
69058;BME280;56128;37.534;-122.308;2023-06-22T05:11:55;101378.72;;;10.50;100.00
69058;BME280;56128;37.534;-122.308;2023-06-22T05:14:25;101380.63;;;10.48;100.00
69058;BME280;56128;37.534;-122.308;2023-06-22T05:16:51;101375.69;;;10.42;100.00
69058;BME280;56128;37.534;-122.308;2023-06-22T05:19:17;101379.31;;;10.41;100.00
69058;BME280;56128;37.534;-122.308;2023-06-22T05:21:44;101372.06;;;10.43;100.00
69058;BME280;56128;37.534;-122.308;2023-06-22T05:24:10;101361.66;;;10.38;100.00
69058;BME280;56128;37.534;-122.308;2023-06-22T05:26:36;101367.00;;;10.38;100.00
69058;BME280;56128;37.534;-122.308;2023-06-22T05:29:03;101366.16;;;10.38;100.00
69058;BME280;56128;37.534;-122.308;2023-06-22T05:31:29;101371.66;;;10.35;100.00
69058;BME280;56128;37.534;-122.308;2023-06-22T05:33:56;101359.47;;;10.31;100.00
69058;BME280;56128;37.534;-122.308;2023-06-22T05:36:22;101367.78;;;10.26;100.00
69058;BME280;56128;37.534;-122.308;2023-06-22T05:38:52;101364.25;;;10.26;100.00
69058;BME280;56128;37.534;-122.308;2023-06-22T05:41:18;101369.03;;;10.20;100.00
69058;BME280;56128;37.534;-122.308;2023-06-22T05:43:45;101371.06;;;10.17;100.00
69058;BME280;56128;37.534;-122.308;2023-06-22T05:46:11;101382.03;;;10.12;100.00
69058;BME280;56128;37.534;-122.308;2023-06-22T05:48:37;101383.22;;;10.08;100.00
69058;BME280;56128;37.534;-122.308;2023-06-22T05:51:03;101381.88;;;10.01;100.00
69058;BME280;56128;37.534;-122.308;2023-06-22T05:53:29;101383.78;;;9.99;100.00
69058;BME280;56128;37.534;-122.308;2023-06-22T05:55:56;101382.66;;;9.88;100.00
69058;BME280;56128;37.534;-122.308;2023-06-22T05:58:22;101375.97;;;9.81;100.00
69058;BME280;56128;37.534;-122.308;2023-06-22T06:00:48;101375.50;;;9.74;100.00
69058;BME280;56128;37.534;-122.308;2023-06-22T06:03:15;101372.94;;;9.73;100.00
69058;BME280;56128;37.534;-122.308;2023-06-22T06:05:43;101376.38;;;9.75;100.00
69058;BME280;56128;37.534;-122.308;2023-06-22T06:08:10;101381.13;;;9.84;100.00
69058;BME280;56128;37.534;-122.308;2023-06-22T06:10:36;101367.31;;;9.78;100.00
69058;BME280;56128;37.534;-122.308;2023-06-22T06:13:03;101374.28;;;9.80;100.00
69058;BME280;56128;37.534;-122.308;2023-06-22T06:15:31;101360.91;;;9.80;100.00
69058;BME280;56128;37.534;-122.308;2023-06-22T06:17:57;101361.00;;;9.79;100.00
69058;BME280;56128;37.534;-122.308;2023-06-22T06:20:25;101352.97;;;9.79;100.00
69058;BME280;56128;37.534;-122.308;2023-06-22T06:22:51;101348.41;;;9.81;100.00
69058;BME280;56128;37.534;-122.308;2023-06-22T06:25:18;101343.34;;;9.76;100.00
69058;BME280;56128;37.534;-122.308;2023-06-22T06:27:47;101344.31;;;9.75;100.00
69058;BME280;56128;37.534;-122.308;2023-06-22T06:30:15;101343.25;;;9.78;100.00
69058;BME280;56128;37.534;-122.308;2023-06-22T06:32:42;101345.06;;;9.77;100.00
69058;BME280;56128;37.534;-122.308;2023-06-22T06:35:09;101340.66;;;9.76;100.00
69058;BME280;56128;37.534;-122.308;2023-06-22T06:37:38;101343.06;;;9.81;100.00
69058;BME280;56128;37.534;-122.308;2023-06-22T06:40:09;101339.59;;;9.79;100.00
69058;BME280;56128;37.534;-122.308;2023-06-22T06:42:39;101335.31;;;9.76;100.00
69058;BME280;56128;37.534;-122.308;2023-06-22T06:45:11;101329.97;;;9.76;100.00
69058;BME280;56128;37.534;-122.308;2023-06-22T06:47:38;101328.66;;;9.69;100.00
69058;BME280;56128;37.534;-122.308;2023-06-22T06:50:05;101322.56;;;9.67;100.00
69058;BME280;56128;37.534;-122.308;2023-06-22T06:52:32;101323.31;;;9.69;100.00
69058;BME280;56128;37.534;-122.308;2023-06-22T06:54:59;101317.97;;;9.69;100.00
69058;BME280;56128;37.534;-122.308;2023-06-22T06:57:26;101320.56;;;9.70;100.00
69058;BME280;56128;37.534;-122.308;2023-06-22T06:59:58;101316.38;;;9.66;100.00
69058;BME280;56128;37.534;-122.308;2023-06-22T07:02:27;101309.31;;;9.65;100.00
69058;BME280;56128;37.534;-122.308;2023-06-22T07:04:56;101314.94;;;9.61;100.00
69058;BME280;56128;37.534;-122.308;2023-06-22T07:07:22;101321.22;;;9.59;100.00
69058;BME280;56128;37.534;-122.308;2023-06-22T07:09:48;101318.94;;;9.53;100.00
69058;BME280;56128;37.534;-122.308;2023-06-22T07:12:14;101316.19;;;9.55;100.00
69058;BME280;56128;37.534;-122.308;2023-06-22T07:14:41;101316.09;;;9.56;100.00
69058;BME280;56128;37.534;-122.308;2023-06-22T07:17:07;101306.53;;;9.52;100.00
69058;BME280;56128;37.534;-122.308;2023-06-22T07:19:33;101311.88;;;9.52;100.00
69058;BME280;56128;37.534;-122.308;2023-06-22T07:21:59;101314.38;;;9.55;100.00
69058;BME280;56128;37.534;-122.308;2023-06-22T07:24:26;101302.91;;;9.53;100.00
69058;BME280;56128;37.534;-122.308;2023-06-22T07:26:53;101307.84;;;9.59;100.00
69058;BME280;56128;37.534;-122.308;2023-06-22T07:29:20;101303.41;;;9.60;100.00
69058;BME280;56128;37.534;-122.308;2023-06-22T07:31:49;101304.25;;;9.61;100.00
69058;BME280;56128;37.534;-122.308;2023-06-22T07:34:17;101301.56;;;9.61;100.00
69058;BME280;56128;37.534;-122.308;2023-06-22T07:36:44;101284.13;;;9.55;100.00
69058;BME280;56128;37.534;-122.308;2023-06-22T07:39:10;101293.84;;;9.56;100.00
69058;BME280;56128;37.534;-122.308;2023-06-22T07:41:39;101283.91;;;9.58;100.00
69058;BME280;56128;37.534;-122.308;2023-06-22T07:44:08;101280.19;;;9.61;100.00
69058;BME280;56128;37.534;-122.308;2023-06-22T07:46:34;101289.25;;;9.58;100.00
69058;BME280;56128;37.534;-122.308;2023-06-22T07:49:01;101293.16;;;9.52;100.00
69058;BME280;56128;37.534;-122.308;2023-06-22T07:51:27;101292.44;;;9.50;100.00
69058;BME280;56128;37.534;-122.308;2023-06-22T07:53:53;101283.63;;;9.48;100.00
69058;BME280;56128;37.534;-122.308;2023-06-22T07:56:20;101291.56;;;9.50;100.00
69058;BME280;56128;37.534;-122.308;2023-06-22T07:58:47;101285.38;;;9.49;100.00
69058;BME280;56128;37.534;-122.308;2023-06-22T08:01:16;101280.78;;;9.51;100.00
69058;BME280;56128;37.534;-122.308;2023-06-22T08:03:45;101281.91;;;9.47;100.00
69058;BME280;56128;37.534;-122.308;2023-06-22T08:06:11;101276.56;;;9.47;100.00
69058;BME280;56128;37.534;-122.308;2023-06-22T08:08:37;101278.56;;;9.43;100.00
69058;BME280;56128;37.534;-122.308;2023-06-22T08:11:03;101283.75;;;9.47;100.00
69058;BME280;56128;37.534;-122.308;2023-06-22T08:13:30;101276.97;;;9.41;100.00
69058;BME280;56128;37.534;-122.308;2023-06-22T08:15:56;101280.31;;;9.45;100.00
69058;BME280;56128;37.534;-122.308;2023-06-22T08:18:22;101283.84;;;9.45;100.00
69058;BME280;56128;37.534;-122.308;2023-06-22T08:20:49;101284.03;;;9.42;100.00
69058;BME280;56128;37.534;-122.308;2023-06-22T08:23:15;101281.34;;;9.42;100.00
69058;BME280;56128;37.534;-122.308;2023-06-22T08:25:42;101288.41;;;9.43;100.00
69058;BME280;56128;37.534;-122.308;2023-06-22T08:28:08;101280.50;;;9.41;100.00
69058;BME280;56128;37.534;-122.308;2023-06-22T08:30:34;101281.56;;;9.39;100.00
69058;BME280;56128;37.534;-122.308;2023-06-22T08:33:00;101280.63;;;9.40;100.00
69058;BME280;56128;37.534;-122.308;2023-06-22T08:35:26;101272.00;;;9.35;100.00
69058;BME280;56128;37.534;-122.308;2023-06-22T08:37:53;101270.09;;;9.37;100.00
69058;BME280;56128;37.534;-122.308;2023-06-22T08:40:20;101271.84;;;9.38;100.00
69058;BME280;56128;37.534;-122.308;2023-06-22T08:42:47;101270.97;;;9.37;100.00
69058;BME280;56128;37.534;-122.308;2023-06-22T08:45:13;101273.06;;;9.32;100.00
69058;BME280;56128;37.534;-122.308;2023-06-22T08:47:41;101264.97;;;9.34;100.00
69058;BME280;56128;37.534;-122.308;2023-06-22T08:50:08;101263.25;;;9.33;100.00
69058;BME280;56128;37.534;-122.308;2023-06-22T08:52:35;101262.88;;;9.39;100.00
69058;BME280;56128;37.534;-122.308;2023-06-22T08:55:02;101262.66;;;9.42;100.00
69058;BME280;56128;37.534;-122.308;2023-06-22T08:57:28;101264.38;;;9.43;100.00
69058;BME280;56128;37.534;-122.308;2023-06-22T08:59:56;101258.38;;;9.39;100.00
69058;BME280;56128;37.534;-122.308;2023-06-22T09:02:26;101268.88;;;9.42;100.00
69058;BME280;56128;37.534;-122.308;2023-06-22T09:04:52;101261.59;;;9.45;100.00
69058;BME280;56128;37.534;-122.308;2023-06-22T09:07:22;101252.91;;;9.41;100.00
69058;BME280;56128;37.534;-122.308;2023-06-22T09:09:49;101252.63;;;9.46;100.00
69058;BME280;56128;37.534;-122.308;2023-06-22T09:12:16;101248.25;;;9.45;100.00
69058;BME280;56128;37.534;-122.308;2023-06-22T09:14:43;101254.38;;;9.47;100.00
69058;BME280;56128;37.534;-122.308;2023-06-22T09:17:09;101251.78;;;9.45;100.00
69058;BME280;56128;37.534;-122.308;2023-06-22T09:19:35;101256.09;;;9.48;100.00
69058;BME280;56128;37.534;-122.308;2023-06-22T09:22:01;101251.47;;;9.50;100.00
69058;BME280;56128;37.534;-122.308;2023-06-22T09:24:29;101260.38;;;9.50;100.00
69058;BME280;56128;37.534;-122.308;2023-06-22T09:26:55;101248.19;;;9.46;100.00
69058;BME280;56128;37.534;-122.308;2023-06-22T09:29:21;101244.63;;;9.46;100.00
69058;BME280;56128;37.534;-122.308;2023-06-22T09:31:47;101257.69;;;9.50;100.00
69058;BME280;56128;37.534;-122.308;2023-06-22T09:34:14;101253.31;;;9.49;100.00
69058;BME280;56128;37.534;-122.308;2023-06-22T09:36:41;101253.31;;;9.49;100.00
69058;BME280;56128;37.534;-122.308;2023-06-22T09:39:07;101250.34;;;9.54;100.00
69058;BME280;56128;37.534;-122.308;2023-06-22T09:41:33;101261.69;;;9.57;100.00
69058;BME280;56128;37.534;-122.308;2023-06-22T09:43:59;101255.19;;;9.62;100.00
69058;BME280;56128;37.534;-122.308;2023-06-22T09:46:26;101254.03;;;9.66;100.00
69058;BME280;56128;37.534;-122.308;2023-06-22T09:48:52;101256.41;;;9.70;100.00
69058;BME280;56128;37.534;-122.308;2023-06-22T09:51:18;101253.47;;;9.75;100.00
69058;BME280;56128;37.534;-122.308;2023-06-22T09:53:47;101255.50;;;9.84;100.00
69058;BME280;56128;37.534;-122.308;2023-06-22T09:56:13;101245.47;;;9.88;100.00
69058;BME280;56128;37.534;-122.308;2023-06-22T09:58:45;101249.94;;;9.87;100.00
69058;BME280;56128;37.534;-122.308;2023-06-22T10:01:18;101254.56;;;9.85;100.00
69058;BME280;56128;37.534;-122.308;2023-06-22T10:03:46;101257.91;;;9.89;100.00
69058;BME280;56128;37.534;-122.308;2023-06-22T10:06:12;101260.66;;;9.87;100.00
69058;BME280;56128;37.534;-122.308;2023-06-22T10:08:38;101267.53;;;9.91;100.00
69058;BME280;56128;37.534;-122.308;2023-06-22T10:11:06;101256.19;;;9.88;100.00
69058;BME280;56128;37.534;-122.308;2023-06-22T10:13:32;101252.56;;;9.89;100.00
69058;BME280;56128;37.534;-122.308;2023-06-22T10:15:58;101249.66;;;9.92;100.00
69058;BME280;56128;37.534;-122.308;2023-06-22T10:18:25;101251.28;;;9.95;100.00
69058;BME280;56128;37.534;-122.308;2023-06-22T10:20:52;101250.31;;;9.96;100.00
69058;BME280;56128;37.534;-122.308;2023-06-22T10:23:19;101243.91;;;9.98;100.00
69058;BME280;56128;37.534;-122.308;2023-06-22T10:25:46;101254.31;;;10.03;100.00
69058;BME280;56128;37.534;-122.308;2023-06-22T10:28:12;101257.53;;;10.08;100.00
69058;BME280;56128;37.534;-122.308;2023-06-22T10:30:39;101259.03;;;10.12;100.00
69058;BME280;56128;37.534;-122.308;2023-06-22T10:33:09;101258.75;;;10.17;100.00
69058;BME280;56128;37.534;-122.308;2023-06-22T10:35:36;101247.94;;;10.18;100.00
69058;BME280;56128;37.534;-122.308;2023-06-22T10:38:04;101252.09;;;10.22;100.00
69058;BME280;56128;37.534;-122.308;2023-06-22T10:40:30;101251.91;;;10.26;100.00
69058;BME280;56128;37.534;-122.308;2023-06-22T10:42:56;101264.41;;;10.25;100.00
69058;BME280;56128;37.534;-122.308;2023-06-22T10:45:23;101258.31;;;10.23;100.00
69058;BME280;56128;37.534;-122.308;2023-06-22T10:47:49;101256.31;;;10.27;100.00
69058;BME280;56128;37.534;-122.308;2023-06-22T10:50:15;101248.19;;;10.28;100.00
69058;BME280;56128;37.534;-122.308;2023-06-22T10:52:41;101248.84;;;10.32;100.00
69058;BME280;56128;37.534;-122.308;2023-06-22T10:55:08;101243.25;;;10.35;100.00
69058;BME280;56128;37.534;-122.308;2023-06-22T10:57:35;101237.75;;;10.38;100.00
69058;BME280;56128;37.534;-122.308;2023-06-22T11:00:02;101236.78;;;10.39;100.00
69058;BME280;56128;37.534;-122.308;2023-06-22T11:02:32;101240.44;;;10.38;100.00
69058;BME280;56128;37.534;-122.308;2023-06-22T11:04:58;101236.78;;;10.39;100.00
69058;BME280;56128;37.534;-122.308;2023-06-22T11:07:26;101245.56;;;10.41;100.00
69058;BME280;56128;37.534;-122.308;2023-06-22T11:09:55;101243.41;;;10.46;100.00
69058;BME280;56128;37.534;-122.308;2023-06-22T11:12:21;101240.44;;;10.51;100.00
69058;BME280;56128;37.534;-122.308;2023-06-22T11:14:48;101246.44;;;10.54;100.00
69058;BME280;56128;37.534;-122.308;2023-06-22T11:17:17;101246.31;;;10.56;100.00
69058;BME280;56128;37.534;-122.308;2023-06-22T11:19:44;101238.41;;;10.54;100.00
69058;BME280;56128;37.534;-122.308;2023-06-22T11:22:10;101231.03;;;10.58;100.00
69058;BME280;56128;37.534;-122.308;2023-06-22T11:24:36;101235.19;;;10.62;100.00
69058;BME280;56128;37.534;-122.308;2023-06-22T11:27:03;101240.44;;;10.64;100.00
69058;BME280;56128;37.534;-122.308;2023-06-22T11:29:29;101226.94;;;10.65;100.00
69058;BME280;56128;37.534;-122.308;2023-06-22T11:31:56;101225.16;;;10.66;100.00
69058;BME280;56128;37.534;-122.308;2023-06-22T11:34:22;101222.47;;;10.66;100.00
69058;BME280;56128;37.534;-122.308;2023-06-22T11:36:49;101229.31;;;10.70;100.00
69058;BME280;56128;37.534;-122.308;2023-06-22T11:39:15;101219.38;;;10.72;100.00
69058;BME280;56128;37.534;-122.308;2023-06-22T11:41:41;101226.31;;;10.75;100.00
69058;BME280;56128;37.534;-122.308;2023-06-22T11:44:08;101217.34;;;10.76;100.00
69058;BME280;56128;37.534;-122.308;2023-06-22T11:46:34;101214.53;;;10.77;100.00
69058;BME280;56128;37.534;-122.308;2023-06-22T11:49:01;101216.91;;;10.82;100.00
69058;BME280;56128;37.534;-122.308;2023-06-22T11:51:28;101223.09;;;10.82;100.00
69058;BME280;56128;37.534;-122.308;2023-06-22T11:53:57;101220.31;;;10.84;100.00
69058;BME280;56128;37.534;-122.308;2023-06-22T11:56:24;101225.59;;;10.85;100.00
69058;BME280;56128;37.534;-122.308;2023-06-22T11:58:50;101228.25;;;10.85;100.00
69058;BME280;56128;37.534;-122.308;2023-06-22T12:01:16;101230.81;;;10.87;100.00
69058;BME280;56128;37.534;-122.308;2023-06-22T12:03:43;101228.03;;;10.88;100.00
69058;BME280;56128;37.534;-122.308;2023-06-22T12:06:09;101220.00;;;10.88;100.00
69058;BME280;56128;37.534;-122.308;2023-06-22T12:08:35;101220.75;;;10.91;100.00
69058;BME280;56128;37.534;-122.308;2023-06-22T12:11:02;101219.78;;;10.92;100.00
69058;BME280;56128;37.534;-122.308;2023-06-22T12:13:28;101210.91;;;10.91;100.00
69058;BME280;56128;37.534;-122.308;2023-06-22T12:15:54;101216.13;;;10.93;100.00
69058;BME280;56128;37.534;-122.308;2023-06-22T12:18:20;101216.56;;;10.86;100.00
69058;BME280;56128;37.534;-122.308;2023-06-22T12:20:47;101210.69;;;10.81;100.00
69058;BME280;56128;37.534;-122.308;2023-06-22T12:23:14;101213.47;;;10.80;100.00